sensor_id;sensor_type;location;lat;lon;timestamp;P1;durP1;ratioP1;P2;durP2;ratioP2
29504;SDS011;16452;54.174;12.092;2022-09-29T00:00:50;15.88;;;11.57;;
29504;SDS011;16452;54.174;12.092;2022-09-29T00:03:17;17.33;;;10.75;;
29504;SDS011;16452;54.174;12.092;2022-09-29T00:05:48;15.45;;;11.38;;
29504;SDS011;16452;54.174;12.092;2022-09-29T00:08:16;15.35;;;11.00;;
29504;SDS011;16452;54.174;12.092;2022-09-29T00:10:44;13.82;;;10.65;;
29504;SDS011;16452;54.174;12.092;2022-09-29T00:13:10;12.40;;;10.77;;
29504;SDS011;16452;54.174;12.092;2022-09-29T00:15:37;16.13;;;10.80;;
29504;SDS011;16452;54.174;12.092;2022-09-29T00:18:03;14.98;;;10.98;;
29504;SDS011;16452;54.174;12.092;2022-09-29T00:20:29;15.30;;;11.10;;
29504;SDS011;16452;54.174;12.092;2022-09-29T00:22:55;15.43;;;12.02;;
29504;SDS011;16452;54.174;12.092;2022-09-29T00:25:21;13.73;;;11.15;;
29504;SDS011;16452;54.174;12.092;2022-09-29T00:27:47;15.18;;;11.60;;
29504;SDS011;16452;54.174;12.092;2022-09-29T00:30:12;16.15;;;11.88;;
29504;SDS011;16452;54.174;12.092;2022-09-29T00:32:38;15.63;;;12.40;;
29504;SDS011;16452;54.174;12.092;2022-09-29T00:35:04;18.52;;;12.75;;
29504;SDS011;16452;54.174;12.092;2022-09-29T00:37:32;17.00;;;12.75;;
29504;SDS011;16452;54.174;12.092;2022-09-29T00:39:58;17.70;;;12.35;;
29504;SDS011;16452;54.174;12.092;2022-09-29T00:42:25;14.75;;;12.23;;
29504;SDS011;16452;54.174;12.092;2022-09-29T00:45:05;19.08;;;13.45;;
29504;SDS011;16452;54.174;12.092;2022-09-29T00:47:40;16.48;;;13.07;;
29504;SDS011;16452;54.174;12.092;2022-09-29T00:50:13;17.48;;;12.90;;
29504;SDS011;16452;54.174;12.092;2022-09-29T00:52:53;16.00;;;13.52;;
29504;SDS011;16452;54.174;12.092;2022-09-29T00:55:26;15.45;;;12.45;;
29504;SDS011;16452;54.174;12.092;2022-09-29T01:00:41;15.45;;;12.48;;
29504;SDS011;16452;54.174;12.092;2022-09-29T01:03:08;15.88;;;12.32;;
29504;SDS011;16452;54.174;12.092;2022-09-29T01:05:40;17.50;;;13.13;;
29504;SDS011;16452;54.174;12.092;2022-09-29T01:08:25;16.70;;;12.52;;
29504;SDS011;16452;54.174;12.092;2022-09-29T01:11:05;15.77;;;13.20;;
29504;SDS011;16452;54.174;12.092;2022-09-29T01:13:32;16.27;;;12.95;;
29504;SDS011;16452;54.174;12.092;2022-09-29T01:15:59;14.00;;;12.35;;
29504;SDS011;16452;54.174;12.092;2022-09-29T01:18:24;16.15;;;12.57;;
29504;SDS011;16452;54.174;12.092;2022-09-29T01:20:53;16.83;;;13.00;;
29504;SDS011;16452;54.174;12.092;2022-09-29T01:39:32;16.92;;;13.48;;
29504;SDS011;16452;54.174;12.092;2022-09-29T01:42:04;17.77;;;13.13;;
29504;SDS011;16452;54.174;12.092;2022-09-29T01:44:42;21.55;;;13.68;;
29504;SDS011;16452;54.174;12.092;2022-09-29T01:47:19;20.60;;;14.82;;
29504;SDS011;16452;54.174;12.092;2022-09-29T01:50:07;16.52;;;13.77;;
29504;SDS011;16452;54.174;12.092;2022-09-29T01:53:03;18.45;;;14.48;;
29504;SDS011;16452;54.174;12.092;2022-09-29T01:55:40;18.15;;;13.52;;
29504;SDS011;16452;54.174;12.092;2022-09-29T01:58:16;19.25;;;14.25;;
29504;SDS011;16452;54.174;12.092;2022-09-29T02:00:57;17.75;;;14.00;;
29504;SDS011;16452;54.174;12.092;2022-09-29T02:03:29;22.25;;;14.38;;
29504;SDS011;16452;54.174;12.092;2022-09-29T02:06:20;17.77;;;14.27;;
29504;SDS011;16452;54.174;12.092;2022-09-29T02:08:53;18.85;;;13.75;;
29504;SDS011;16452;54.174;12.092;2022-09-29T02:11:20;19.45;;;13.68;;
29504;SDS011;16452;54.174;12.092;2022-09-29T02:16:22;16.52;;;13.45;;
29504;SDS011;16452;54.174;12.092;2022-09-29T02:18:55;20.25;;;14.18;;
29504;SDS011;16452;54.174;12.092;2022-09-29T02:21:29;18.42;;;13.23;;
29504;SDS011;16452;54.174;12.092;2022-09-29T02:23:54;15.60;;;13.05;;
29504;SDS011;16452;54.174;12.092;2022-09-29T02:26:21;16.45;;;13.35;;
29504;SDS011;16452;54.174;12.092;2022-09-29T02:28:52;17.85;;;12.85;;
29504;SDS011;16452;54.174;12.092;2022-09-29T02:31:19;18.45;;;13.73;;
29504;SDS011;16452;54.174;12.092;2022-09-29T02:33:45;20.70;;;13.52;;
29504;SDS011;16452;54.174;12.092;2022-09-29T02:36:19;16.60;;;14.05;;
29504;SDS011;16452;54.174;12.092;2022-09-29T02:45:09;21.80;;;15.05;;
29504;SDS011;16452;54.174;12.092;2022-09-29T02:53:45;24.83;;;15.90;;
29504;SDS011;16452;54.174;12.092;2022-09-29T02:56:38;22.27;;;16.58;;
29504;SDS011;16452;54.174;12.092;2022-09-29T02:59:53;21.73;;;16.40;;
29504;SDS011;16452;54.174;12.092;2022-09-29T03:02:33;25.20;;;17.65;;
29504;SDS011;16452;54.174;12.092;2022-09-29T03:05:01;23.33;;;16.92;;
29504;SDS011;16452;54.174;12.092;2022-09-29T03:07:32;24.98;;;17.17;;
29504;SDS011;16452;54.174;12.092;2022-09-29T03:09:59;25.50;;;18.70;;
29504;SDS011;16452;54.174;12.092;2022-09-29T03:12:25;27.73;;;19.63;;
29504;SDS011;16452;54.174;12.092;2022-09-29T03:14:50;35.10;;;19.30;;
29504;SDS011;16452;54.174;12.092;2022-09-29T03:17:16;30.10;;;20.13;;
29504;SDS011;16452;54.174;12.092;2022-09-29T03:19:42;30.63;;;19.80;;
29504;SDS011;16452;54.174;12.092;2022-09-29T03:22:08;28.23;;;20.10;;
29504;SDS011;16452;54.174;12.092;2022-09-29T03:24:36;30.63;;;19.88;;
29504;SDS011;16452;54.174;12.092;2022-09-29T03:27:02;29.83;;;20.48;;
29504;SDS011;16452;54.174;12.092;2022-09-29T03:29:28;30.10;;;20.25;;
29504;SDS011;16452;54.174;12.092;2022-09-29T03:31:54;29.90;;;20.80;;
29504;SDS011;16452;54.174;12.092;2022-09-29T03:34:19;34.70;;;22.00;;
29504;SDS011;16452;54.174;12.092;2022-09-29T03:36:45;32.25;;;21.10;;
29504;SDS011;16452;54.174;12.092;2022-09-29T03:39:11;34.42;;;21.58;;
29504;SDS011;16452;54.174;12.092;2022-09-29T03:41:37;30.60;;;20.80;;
29504;SDS011;16452;54.174;12.092;2022-09-29T03:44:02;30.80;;;21.67;;
29504;SDS011;16452;54.174;12.092;2022-09-29T03:46:28;31.02;;;21.17;;
29504;SDS011;16452;54.174;12.092;2022-09-29T03:48:54;30.35;;;21.73;;
29504;SDS011;16452;54.174;12.092;2022-09-29T03:51:20;33.30;;;21.33;;
29504;SDS011;16452;54.174;12.092;2022-09-29T03:53:45;32.15;;;21.95;;
29504;SDS011;16452;54.174;12.092;2022-09-29T03:56:11;31.65;;;21.50;;
29504;SDS011;16452;54.174;12.092;2022-09-29T03:58:37;28.00;;;20.55;;
29504;SDS011;16452;54.174;12.092;2022-09-29T04:01:02;32.65;;;22.58;;
29504;SDS011;16452;54.174;12.092;2022-09-29T04:03:28;32.08;;;22.20;;
29504;SDS011;16452;54.174;12.092;2022-09-29T04:05:54;33.25;;;22.40;;
29504;SDS011;16452;54.174;12.092;2022-09-29T04:08:19;31.85;;;22.10;;
29504;SDS011;16452;54.174;12.092;2022-09-29T04:10:46;31.52;;;22.45;;
29504;SDS011;16452;54.174;12.092;2022-09-29T04:13:12;30.33;;;21.77;;
29504;SDS011;16452;54.174;12.092;2022-09-29T04:15:38;30.60;;;21.35;;
29504;SDS011;16452;54.174;12.092;2022-09-29T04:18:04;31.08;;;21.13;;
29504;SDS011;16452;54.174;12.092;2022-09-29T04:20:30;31.85;;;20.70;;
29504;SDS011;16452;54.174;12.092;2022-09-29T04:22:57;31.83;;;21.98;;
29504;SDS011;16452;54.174;12.092;2022-09-29T04:25:25;31.00;;;20.92;;
29504;SDS011;16452;54.174;12.092;2022-09-29T04:27:52;30.88;;;21.60;;
29504;SDS011;16452;54.174;12.092;2022-09-29T04:30:18;32.88;;;21.13;;
29504;SDS011;16452;54.174;12.092;2022-09-29T04:32:43;33.85;;;21.92;;
29504;SDS011;16452;54.174;12.092;2022-09-29T04:35:09;31.67;;;22.05;;
29504;SDS011;16452;54.174;12.092;2022-09-29T04:37:35;33.63;;;22.73;;
29504;SDS011;16452;54.174;12.092;2022-09-29T04:40:01;33.42;;;22.23;;
29504;SDS011;16452;54.174;12.092;2022-09-29T04:42:29;33.83;;;23.63;;
29504;SDS011;16452;54.174;12.092;2022-09-29T04:44:54;31.45;;;22.50;;
29504;SDS011;16452;54.174;12.092;2022-09-29T04:47:20;33.00;;;21.88;;
29504;SDS011;16452;54.174;12.092;2022-09-29T04:49:46;35.97;;;22.00;;
29504;SDS011;16452;54.174;12.092;2022-09-29T04:52:12;35.42;;;22.35;;
29504;SDS011;16452;54.174;12.092;2022-09-29T04:54:38;34.72;;;21.52;;
29504;SDS011;16452;54.174;12.092;2022-09-29T04:57:05;34.35;;;21.55;;
29504;SDS011;16452;54.174;12.092;2022-09-29T04:59:31;33.20;;;22.65;;
29504;SDS011;16452;54.174;12.092;2022-09-29T05:01:57;33.47;;;22.48;;
29504;SDS011;16452;54.174;12.092;2022-09-29T05:04:23;33.33;;;22.70;;
29504;SDS011;16452;54.174;12.092;2022-09-29T05:06:49;33.45;;;22.20;;
29504;SDS011;16452;54.174;12.092;2022-09-29T05:09:14;35.50;;;23.05;;
29504;SDS011;16452;54.174;12.092;2022-09-29T05:11:40;33.85;;;22.52;;
29504;SDS011;16452;54.174;12.092;2022-09-29T05:14:06;30.33;;;21.38;;
29504;SDS011;16452;54.174;12.092;2022-09-29T05:16:31;31.83;;;21.85;;
29504;SDS011;16452;54.174;12.092;2022-09-29T05:18:57;33.50;;;22.17;;
29504;SDS011;16452;54.174;12.092;2022-09-29T05:21:23;33.97;;;21.83;;
29504;SDS011;16452;54.174;12.092;2022-09-29T05:23:49;34.97;;;22.42;;
29504;SDS011;16452;54.174;12.092;2022-09-29T05:26:15;30.38;;;21.52;;
29504;SDS011;16452;54.174;12.092;2022-09-29T05:28:42;32.90;;;21.70;;
29504;SDS011;16452;54.174;12.092;2022-09-29T05:31:10;31.58;;;21.58;;
29504;SDS011;16452;54.174;12.092;2022-09-29T05:33:37;32.63;;;21.63;;
29504;SDS011;16452;54.174;12.092;2022-09-29T05:36:03;33.55;;;21.48;;
29504;SDS011;16452;54.174;12.092;2022-09-29T05:38:31;29.23;;;20.35;;
29504;SDS011;16452;54.174;12.092;2022-09-29T05:41:02;30.23;;;21.52;;
29504;SDS011;16452;54.174;12.092;2022-09-29T05:43:29;32.65;;;21.08;;
29504;SDS011;16452;54.174;12.092;2022-09-29T05:46:01;29.67;;;19.65;;
29504;SDS011;16452;54.174;12.092;2022-09-29T05:48:29;28.48;;;20.45;;
29504;SDS011;16452;54.174;12.092;2022-09-29T05:50:58;32.47;;;20.27;;
29504;SDS011;16452;54.174;12.092;2022-09-29T05:53:30;31.05;;;20.05;;
29504;SDS011;16452;54.174;12.092;2022-09-29T05:55:55;31.73;;;19.95;;
29504;SDS011;16452;54.174;12.092;2022-09-29T05:58:21;29.83;;;18.92;;
29504;SDS011;16452;54.174;12.092;2022-09-29T06:00:47;28.77;;;19.25;;
29504;SDS011;16452;54.174;12.092;2022-09-29T06:03:12;27.13;;;18.60;;
29504;SDS011;16452;54.174;12.092;2022-09-29T06:05:38;27.15;;;17.90;;
29504;SDS011;16452;54.174;12.092;2022-09-29T06:08:05;24.83;;;17.90;;
29504;SDS011;16452;54.174;12.092;2022-09-29T06:10:31;26.33;;;17.40;;
29504;SDS011;16452;54.174;12.092;2022-09-29T06:12:58;24.88;;;16.88;;
29504;SDS011;16452;54.174;12.092;2022-09-29T06:15:25;22.58;;;16.15;;
29504;SDS011;16452;54.174;12.092;2022-09-29T06:17:57;22.98;;;17.08;;
29504;SDS011;16452;54.174;12.092;2022-09-29T06:20:23;23.73;;;15.52;;
29504;SDS011;16452;54.174;12.092;2022-09-29T06:22:53;23.63;;;16.48;;
29504;SDS011;16452;54.174;12.092;2022-09-29T06:25:19;22.85;;;15.02;;
29504;SDS011;16452;54.174;12.092;2022-09-29T06:27:46;24.50;;;16.45;;
29504;SDS011;16452;54.174;12.092;2022-09-29T06:30:12;21.45;;;15.32;;
29504;SDS011;16452;54.174;12.092;2022-09-29T06:32:38;20.38;;;15.10;;
29504;SDS011;16452;54.174;12.092;2022-09-29T06:35:05;22.60;;;15.13;;
29504;SDS011;16452;54.174;12.092;2022-09-29T06:37:49;20.77;;;14.30;;
29504;SDS011;16452;54.174;12.092;2022-09-29T06:40:20;20.38;;;14.13;;
29504;SDS011;16452;54.174;12.092;2022-09-29T06:42:45;20.73;;;13.77;;
29504;SDS011;16452;54.174;12.092;2022-09-29T06:45:12;23.20;;;14.45;;
29504;SDS011;16452;54.174;12.092;2022-09-29T06:47:38;21.95;;;14.07;;
29504;SDS011;16452;54.174;12.092;2022-09-29T06:50:04;19.60;;;12.85;;
29504;SDS011;16452;54.174;12.092;2022-09-29T06:52:30;18.55;;;13.27;;
29504;SDS011;16452;54.174;12.092;2022-09-29T06:54:56;20.38;;;14.23;;
29504;SDS011;16452;54.174;12.092;2022-09-29T06:57:22;19.75;;;13.45;;
29504;SDS011;16452;54.174;12.092;2022-09-29T06:59:47;18.02;;;12.82;;
29504;SDS011;16452;54.174;12.092;2022-09-29T07:02:13;21.05;;;13.70;;
29504;SDS011;16452;54.174;12.092;2022-09-29T07:04:39;17.52;;;13.52;;
29504;SDS011;16452;54.174;12.092;2022-09-29T07:07:05;20.30;;;12.82;;
29504;SDS011;16452;54.174;12.092;2022-09-29T07:09:30;17.60;;;12.55;;
29504;SDS011;16452;54.174;12.092;2022-09-29T07:11:56;18.13;;;13.02;;
29504;SDS011;16452;54.174;12.092;2022-09-29T07:14:22;17.98;;;13.25;;
29504;SDS011;16452;54.174;12.092;2022-09-29T07:16:49;20.90;;;12.63;;
29504;SDS011;16452;54.174;12.092;2022-09-29T07:19:16;18.92;;;12.63;;
29504;SDS011;16452;54.174;12.092;2022-09-29T07:21:44;18.20;;;12.23;;
29504;SDS011;16452;54.174;12.092;2022-09-29T07:24:12;15.95;;;11.82;;
29504;SDS011;16452;54.174;12.092;2022-09-29T07:26:38;15.48;;;11.57;;
29504;SDS011;16452;54.174;12.092;2022-09-29T07:29:04;17.67;;;11.60;;
29504;SDS011;16452;54.174;12.092;2022-09-29T07:31:30;15.35;;;11.75;;
29504;SDS011;16452;54.174;12.092;2022-09-29T07:33:56;18.27;;;11.10;;
29504;SDS011;16452;54.174;12.092;2022-09-29T07:36:21;15.35;;;10.98;;
29504;SDS011;16452;54.174;12.092;2022-09-29T07:38:48;16.42;;;10.43;;
29504;SDS011;16452;54.174;12.092;2022-09-29T07:41:16;17.67;;;11.05;;
29504;SDS011;16452;54.174;12.092;2022-09-29T07:43:45;14.55;;;10.52;;
29504;SDS011;16452;54.174;12.092;2022-09-29T07:46:11;17.63;;;11.18;;
29504;SDS011;16452;54.174;12.092;2022-09-29T07:48:37;13.90;;;9.57;;
29504;SDS011;16452;54.174;12.092;2022-09-29T07:51:13;15.18;;;9.07;;
29504;SDS011;16452;54.174;12.092;2022-09-29T07:53:42;13.02;;;8.57;;
29504;SDS011;16452;54.174;12.092;2022-09-29T07:56:09;12.35;;;9.55;;
29504;SDS011;16452;54.174;12.092;2022-09-29T07:58:38;11.70;;;8.98;;
29504;SDS011;16452;54.174;12.092;2022-09-29T08:01:06;11.15;;;8.02;;
29504;SDS011;16452;54.174;12.092;2022-09-29T08:03:36;14.68;;;9.27;;
29504;SDS011;16452;54.174;12.092;2022-09-29T08:06:04;13.60;;;10.30;;
29504;SDS011;16452;54.174;12.092;2022-09-29T08:08:33;12.18;;;9.57;;
29504;SDS011;16452;54.174;12.092;2022-09-29T08:11:01;11.73;;;8.68;;
29504;SDS011;16452;54.174;12.092;2022-09-29T08:13:42;11.25;;;8.88;;
29504;SDS011;16452;54.174;12.092;2022-09-29T08:16:12;13.50;;;9.40;;
29504;SDS011;16452;54.174;12.092;2022-09-29T08:18:39;12.48;;;8.98;;
29504;SDS011;16452;54.174;12.092;2022-09-29T08:21:06;11.27;;;8.43;;
29504;SDS011;16452;54.174;12.092;2022-09-29T08:23:34;12.73;;;8.48;;
29504;SDS011;16452;54.174;12.092;2022-09-29T08:26:06;11.38;;;8.93;;
29504;SDS011;16452;54.174;12.092;2022-09-29T08:28:35;13.40;;;8.63;;
29504;SDS011;16452;54.174;12.092;2022-09-29T08:31:10;11.70;;;8.52;;
29504;SDS011;16452;54.174;12.092;2022-09-29T08:33:48;12.00;;;8.75;;
29504;SDS011;16452;54.174;12.092;2022-09-29T08:36:16;10.93;;;8.77;;
29504;SDS011;16452;54.174;12.092;2022-09-29T08:38:43;11.45;;;8.38;;
29504;SDS011;16452;54.174;12.092;2022-09-29T08:41:23;11.60;;;8.20;;
29504;SDS011;16452;54.174;12.092;2022-09-29T08:46:53;9.38;;;6.60;;
29504;SDS011;16452;54.174;12.092;2022-09-29T08:49:34;10.18;;;6.40;;
29504;SDS011;16452;54.174;12.092;2022-09-29T08:52:07;6.18;;;5.45;;
29504;SDS011;16452;54.174;12.092;2022-09-29T08:54:52;6.07;;;4.97;;
29504;SDS011;16452;54.174;12.092;2022-09-29T08:57:37;6.82;;;4.80;;
29504;SDS011;16452;54.174;12.092;2022-09-29T09:00:03;6.93;;;6.15;;
29504;SDS011;16452;54.174;12.092;2022-09-29T09:09:09;11.85;;;7.57;;
29504;SDS011;16452;54.174;12.092;2022-09-29T09:12:02;11.27;;;7.60;;
29504;SDS011;16452;54.174;12.092;2022-09-29T09:21:03;5.53;;;4.25;;
29504;SDS011;16452;54.174;12.092;2022-09-29T09:26:22;3.67;;;2.83;;
29504;SDS011;16452;54.174;12.092;2022-09-29T09:29:12;7.88;;;5.30;;
29504;SDS011;16452;54.174;12.092;2022-09-29T09:31:49;5.57;;;4.15;;
29504;SDS011;16452;54.174;12.092;2022-09-29T09:34:25;6.65;;;2.90;;
29504;SDS011;16452;54.174;12.092;2022-09-29T09:37:05;6.10;;;2.25;;
29504;SDS011;16452;54.174;12.092;2022-09-29T09:39:53;3.13;;;2.10;;
29504;SDS011;16452;54.174;12.092;2022-09-29T09:42:38;2.90;;;2.60;;
29504;SDS011;16452;54.174;12.092;2022-09-29T09:45:28;3.10;;;2.33;;
29504;SDS011;16452;54.174;12.092;2022-09-29T09:48:11;3.58;;;2.45;;
29504;SDS011;16452;54.174;12.092;2022-09-29T09:50:43;4.28;;;2.20;;
29504;SDS011;16452;54.174;12.092;2022-09-29T09:53:21;2.35;;;2.10;;
29504;SDS011;16452;54.174;12.092;2022-09-29T10:02:01;4.35;;;2.65;;
29504;SDS011;16452;54.174;12.092;2022-09-29T10:04:27;2.80;;;2.17;;
29504;SDS011;16452;54.174;12.092;2022-09-29T10:06:53;3.22;;;2.30;;
29504;SDS011;16452;54.174;12.092;2022-09-29T10:09:20;4.22;;;1.92;;
29504;SDS011;16452;54.174;12.092;2022-09-29T10:11:46;2.63;;;1.98;;
29504;SDS011;16452;54.174;12.092;2022-09-29T10:14:13;2.42;;;1.98;;
29504;SDS011;16452;54.174;12.092;2022-09-29T10:22:21;3.10;;;2.78;;
29504;SDS011;16452;54.174;12.092;2022-09-29T10:24:47;3.95;;;3.25;;
29504;SDS011;16452;54.174;12.092;2022-09-29T10:27:19;4.60;;;3.00;;
29504;SDS011;16452;54.174;12.092;2022-09-29T10:29:49;3.95;;;3.25;;
29504;SDS011;16452;54.174;12.092;2022-09-29T10:32:29;5.05;;;3.55;;
29504;SDS011;16452;54.174;12.092;2022-09-29T10:37:40;4.65;;;4.22;;
29504;SDS011;16452;54.174;12.092;2022-09-29T10:42:43;7.30;;;5.28;;
29504;SDS011;16452;54.174;12.092;2022-09-29T10:47:44;7.60;;;5.05;;
29504;SDS011;16452;54.174;12.092;2022-09-29T10:53:22;8.02;;;5.22;;
29504;SDS011;16452;54.174;12.092;2022-09-29T10:56:15;8.88;;;5.70;;
29504;SDS011;16452;54.174;12.092;2022-09-29T10:58:57;7.93;;;4.85;;
29504;SDS011;16452;54.174;12.092;2022-09-29T11:01:26;5.10;;;3.03;;
29504;SDS011;16452;54.174;12.092;2022-09-29T11:03:56;3.97;;;2.55;;
29504;SDS011;16452;54.174;12.092;2022-09-29T11:06:30;3.65;;;2.70;;
29504;SDS011;16452;54.174;12.092;2022-09-29T11:09:25;3.13;;;2.47;;
29504;SDS011;16452;54.174;12.092;2022-09-29T11:11:53;6.10;;;3.83;;
29504;SDS011;16452;54.174;12.092;2022-09-29T11:14:22;4.65;;;2.78;;
29504;SDS011;16452;54.174;12.092;2022-09-29T11:17:01;4.25;;;3.15;;
29504;SDS011;16452;54.174;12.092;2022-09-29T11:19:50;4.72;;;2.97;;
29504;SDS011;16452;54.174;12.092;2022-09-29T11:22:31;3.80;;;2.35;;
29504;SDS011;16452;54.174;12.092;2022-09-29T11:33:39;4.68;;;2.35;;
29504;SDS011;16452;54.174;12.092;2022-09-29T11:36:37;4.90;;;2.28;;
29504;SDS011;16452;54.174;12.092;2022-09-29T11:45:33;5.20;;;2.90;;
29504;SDS011;16452;54.174;12.092;2022-09-29T11:48:39;4.68;;;2.90;;
29504;SDS011;16452;54.174;12.092;2022-09-29T11:51:47;4.68;;;3.00;;
29504;SDS011;16452;54.174;12.092;2022-09-29T12:03:15;5.63;;;3.08;;
29504;SDS011;16452;54.174;12.092;2022-09-29T12:12:16;9.35;;;5.10;;
29504;SDS011;16452;54.174;12.092;2022-09-29T12:18:22;3.30;;;2.95;;
29504;SDS011;16452;54.174;12.092;2022-09-29T12:20:56;2.55;;;2.08;;
29504;SDS011;16452;54.174;12.092;2022-09-29T12:23:23;3.92;;;2.58;;
29504;SDS011;16452;54.174;12.092;2022-09-29T12:25:56;3.78;;;2.70;;
29504;SDS011;16452;54.174;12.092;2022-09-29T12:28:34;2.92;;;2.42;;
29504;SDS011;16452;54.174;12.092;2022-09-29T12:31:14;2.85;;;2.50;;
29504;SDS011;16452;54.174;12.092;2022-09-29T12:33:55;4.20;;;3.00;;
29504;SDS011;16452;54.174;12.092;2022-09-29T12:36:43;4.00;;;2.53;;
29504;SDS011;16452;54.174;12.092;2022-09-29T12:51:46;6.38;;;3.70;;
29504;SDS011;16452;54.174;12.092;2022-09-29T12:57:10;5.00;;;4.00;;
29504;SDS011;16452;54.174;12.092;2022-09-29T12:59:43;5.75;;;3.95;;
29504;SDS011;16452;54.174;12.092;2022-09-29T13:02:36;7.55;;;4.55;;
29504;SDS011;16452;54.174;12.092;2022-09-29T13:11:38;7.53;;;4.35;;
29504;SDS011;16452;54.174;12.092;2022-09-29T13:14:24;5.10;;;3.10;;
29504;SDS011;16452;54.174;12.092;2022-09-29T13:17:30;7.05;;;3.88;;
29504;SDS011;16452;54.174;12.092;2022-09-29T13:28:49;6.50;;;4.40;;
29504;SDS011;16452;54.174;12.092;2022-09-29T13:31:22;5.20;;;4.05;;
29504;SDS011;16452;54.174;12.092;2022-09-29T13:33:53;4.03;;;3.63;;
29504;SDS011;16452;54.174;12.092;2022-09-29T13:36:27;7.30;;;3.30;;
29504;SDS011;16452;54.174;12.092;2022-09-29T13:39:05;4.47;;;3.33;;
29504;SDS011;16452;54.174;12.092;2022-09-29T13:41:43;4.35;;;2.90;;
29504;SDS011;16452;54.174;12.092;2022-09-29T13:46:40;3.30;;;2.67;;
29504;SDS011;16452;54.174;12.092;2022-09-29T13:54:54;6.55;;;3.58;;
29504;SDS011;16452;54.174;12.092;2022-09-29T13:57:49;5.78;;;3.22;;
29504;SDS011;16452;54.174;12.092;2022-09-29T14:00:16;5.15;;;3.28;;
29504;SDS011;16452;54.174;12.092;2022-09-29T14:02:45;4.25;;;3.40;;
29504;SDS011;16452;54.174;12.092;2022-09-29T14:08:06;5.78;;;3.40;;
29504;SDS011;16452;54.174;12.092;2022-09-29T14:10:51;4.88;;;3.40;;
29504;SDS011;16452;54.174;12.092;2022-09-29T14:13:40;4.47;;;3.70;;
29504;SDS011;16452;54.174;12.092;2022-09-29T14:16:44;5.20;;;3.72;;
29504;SDS011;16452;54.174;12.092;2022-09-29T14:25:22;6.97;;;4.13;;
29504;SDS011;16452;54.174;12.092;2022-09-29T14:35:53;7.95;;;4.18;;
29504;SDS011;16452;54.174;12.092;2022-09-29T14:38:42;6.50;;;4.20;;
29504;SDS011;16452;54.174;12.092;2022-09-29T14:41:28;5.50;;;4.00;;
29504;SDS011;16452;54.174;12.092;2022-09-29T14:55:47;7.95;;;6.35;;
29504;SDS011;16452;54.174;12.092;2022-09-29T15:02:16;6.10;;;5.50;;
29504;SDS011;16452;54.174;12.092;2022-09-29T15:04:46;7.10;;;5.57;;
29504;SDS011;16452;54.174;12.092;2022-09-29T15:07:14;10.20;;;6.75;;
29504;SDS011;16452;54.174;12.092;2022-09-29T15:09:46;6.68;;;5.30;;
29504;SDS011;16452;54.174;12.092;2022-09-29T15:12:22;7.35;;;5.40;;
29504;SDS011;16452;54.174;12.092;2022-09-29T15:14:52;8.93;;;5.43;;
29504;SDS011;16452;54.174;12.092;2022-09-29T15:20:22;7.35;;;4.60;;
29504;SDS011;16452;54.174;12.092;2022-09-29T15:25:38;4.82;;;3.80;;
29504;SDS011;16452;54.174;12.092;2022-09-29T15:28:14;6.03;;;3.88;;
29504;SDS011;16452;54.174;12.092;2022-09-29T15:30:58;5.63;;;3.10;;
29504;SDS011;16452;54.174;12.092;2022-09-29T15:33:34;4.82;;;2.80;;
29504;SDS011;16452;54.174;12.092;2022-09-29T15:36:06;5.00;;;3.63;;
29504;SDS011;16452;54.174;12.092;2022-09-29T15:39:06;8.43;;;3.17;;
29504;SDS011;16452;54.174;12.092;2022-09-29T15:42:01;7.65;;;2.63;;
29504;SDS011;16452;54.174;12.092;2022-09-29T15:44:39;4.47;;;2.92;;
29504;SDS011;16452;54.174;12.092;2022-09-29T15:47:41;3.13;;;2.65;;
29504;SDS011;16452;54.174;12.092;2022-09-29T15:50:16;3.40;;;2.80;;
29504;SDS011;16452;54.174;12.092;2022-09-29T15:52:48;5.93;;;3.10;;
29504;SDS011;16452;54.174;12.092;2022-09-29T15:55:16;4.88;;;2.97;;
29504;SDS011;16452;54.174;12.092;2022-09-29T15:57:47;3.30;;;3.00;;
29504;SDS011;16452;54.174;12.092;2022-09-29T16:02:50;4.25;;;3.08;;
29504;SDS011;16452;54.174;12.092;2022-09-29T16:05:26;6.55;;;3.25;;
29504;SDS011;16452;54.174;12.092;2022-09-29T16:08:05;4.03;;;2.90;;
29504;SDS011;16452;54.174;12.092;2022-09-29T16:10:56;4.93;;;3.30;;
29504;SDS011;16452;54.174;12.092;2022-09-29T16:13:25;3.72;;;3.03;;
29504;SDS011;16452;54.174;12.092;2022-09-29T16:15:58;3.42;;;3.13;;
29504;SDS011;16452;54.174;12.092;2022-09-29T16:21:04;5.50;;;3.03;;
29504;SDS011;16452;54.174;12.092;2022-09-29T16:23:35;4.82;;;3.35;;
29504;SDS011;16452;54.174;12.092;2022-09-29T16:26:15;4.90;;;3.30;;
29504;SDS011;16452;54.174;12.092;2022-09-29T16:28:58;4.65;;;3.80;;
29504;SDS011;16452;54.174;12.092;2022-09-29T16:31:40;5.15;;;3.70;;
29504;SDS011;16452;54.174;12.092;2022-09-29T16:37:04;3.88;;;3.47;;
29504;SDS011;16452;54.174;12.092;2022-09-29T16:39:44;7.00;;;4.10;;
29504;SDS011;16452;54.174;12.092;2022-09-29T16:42:16;7.30;;;3.95;;
29504;SDS011;16452;54.174;12.092;2022-09-29T16:44:52;4.75;;;3.70;;
29504;SDS011;16452;54.174;12.092;2022-09-29T16:47:24;6.10;;;4.00;;
29504;SDS011;16452;54.174;12.092;2022-09-29T16:49:56;6.10;;;3.75;;
29504;SDS011;16452;54.174;12.092;2022-09-29T16:52:48;6.60;;;4.13;;
29504;SDS011;16452;54.174;12.092;2022-09-29T16:58:28;5.05;;;3.67;;
29504;SDS011;16452;54.174;12.092;2022-09-29T17:00:37;5.05;;;3.70;;
29504;SDS011;16452;54.174;12.092;2022-09-29T17:03:03;6.30;;;4.82;;
29504;SDS011;16452;54.174;12.092;2022-09-29T17:05:29;6.72;;;4.60;;
29504;SDS011;16452;54.174;12.092;2022-09-29T17:08:10;5.07;;;4.30;;
29504;SDS011;16452;54.174;12.092;2022-09-29T17:10:48;4.90;;;4.20;;
29504;SDS011;16452;54.174;12.092;2022-09-29T17:13:16;4.72;;;3.80;;
29504;SDS011;16452;54.174;12.092;2022-09-29T17:15:43;6.50;;;3.88;;
29504;SDS011;16452;54.174;12.092;2022-09-29T17:18:14;4.68;;;4.20;;
29504;SDS011;16452;54.174;12.092;2022-09-29T17:20:41;7.57;;;4.35;;
29504;SDS011;16452;54.174;12.092;2022-09-29T17:23:07;4.57;;;4.10;;
29504;SDS011;16452;54.174;12.092;2022-09-29T17:25:34;5.13;;;4.40;;
29504;SDS011;16452;54.174;12.092;2022-09-29T17:28:02;4.72;;;3.97;;
29504;SDS011;16452;54.174;12.092;2022-09-29T17:30:40;5.50;;;4.13;;
29504;SDS011;16452;54.174;12.092;2022-09-29T17:33:09;5.10;;;4.25;;
29504;SDS011;16452;54.174;12.092;2022-09-29T17:35:38;5.82;;;4.40;;
29504;SDS011;16452;54.174;12.092;2022-09-29T17:38:06;6.72;;;4.72;;
29504;SDS011;16452;54.174;12.092;2022-09-29T17:40:45;6.25;;;4.93;;
29504;SDS011;16452;54.174;12.092;2022-09-29T17:43:17;5.10;;;4.60;;
29504;SDS011;16452;54.174;12.092;2022-09-29T17:45:43;5.60;;;4.75;;
29504;SDS011;16452;54.174;12.092;2022-09-29T17:48:10;6.53;;;4.85;;
29504;SDS011;16452;54.174;12.092;2022-09-29T17:50:38;7.68;;;5.28;;
29504;SDS011;16452;54.174;12.092;2022-09-29T17:53:15;5.30;;;4.80;;
29504;SDS011;16452;54.174;12.092;2022-09-29T17:55:43;7.15;;;4.88;;
29504;SDS011;16452;54.174;12.092;2022-09-29T17:58:13;5.93;;;4.80;;
29504;SDS011;16452;54.174;12.092;2022-09-29T18:00:41;5.63;;;5.03;;
29504;SDS011;16452;54.174;12.092;2022-09-29T18:03:16;5.75;;;5.03;;
29504;SDS011;16452;54.174;12.092;2022-09-29T18:05:44;7.78;;;5.03;;